sensor_id;sensor_type;location;lat;lon;timestamp;temperature;humidity
71291;DHT22;59073;51.994;4.448;2022-11-15T00:00:15;8.37;88.68
71291;DHT22;59073;51.994;4.448;2022-11-15T00:02:40;8.47;88.88
71291;DHT22;59073;51.994;4.448;2022-11-15T00:05:06;8.54;88.43
71291;DHT22;59073;51.994;4.448;2022-11-15T00:07:31;8.57;88.15
71291;DHT22;59073;51.994;4.448;2022-11-15T00:09:57;8.54;88.32
71291;DHT22;59073;51.994;4.448;2022-11-15T00:12:22;8.47;88.54
71291;DHT22;59073;51.994;4.448;2022-11-15T00:14:47;8.43;88.87
71291;DHT22;59073;51.994;4.448;2022-11-15T00:17:13;8.40;88.96
71291;DHT22;59073;51.994;4.448;2022-11-15T00:19:38;8.56;89.24
71291;DHT22;59073;51.994;4.448;2022-11-15T00:22:04;8.48;88.93
71291;DHT22;59073;51.994;4.448;2022-11-15T00:24:29;8.58;88.79
71291;DHT22;59073;51.994;4.448;2022-11-15T00:26:54;8.61;88.99
71291;DHT22;59073;51.994;4.448;2022-11-15T00:29:20;8.36;89.92
71291;DHT22;59073;51.994;4.448;2022-11-15T00:31:45;8.51;89.80
71291;DHT22;59073;51.994;4.448;2022-11-15T00:34:11;8.51;89.71
71291;DHT22;59073;51.994;4.448;2022-11-15T00:36:36;8.50;89.91
71291;DHT22;59073;51.994;4.448;2022-11-15T00:39:04;8.54;89.89
71291;DHT22;59073;51.994;4.448;2022-11-15T00:41:31;8.53;89.87
71291;DHT22;59073;51.994;4.448;2022-11-15T00:43:57;8.53;89.89
71291;DHT22;59073;51.994;4.448;2022-11-15T00:46:22;8.44;90.58
71291;DHT22;59073;51.994;4.448;2022-11-15T00:48:48;8.64;90.24
71291;DHT22;59073;51.994;4.448;2022-11-15T00:51:13;8.77;89.82
71291;DHT22;59073;51.994;4.448;2022-11-15T00:53:38;8.84;89.24
71291;DHT22;59073;51.994;4.448;2022-11-15T00:56:04;8.95;89.11
71291;DHT22;59073;51.994;4.448;2022-11-15T00:58:30;9.05;88.74
71291;DHT22;59073;51.994;4.448;2022-11-15T01:00:56;9.09;88.51
71291;DHT22;59073;51.994;4.448;2022-11-15T01:03:21;9.05;88.65
71291;DHT22;59073;51.994;4.448;2022-11-15T01:05:46;9.15;88.48
71291;DHT22;59073;51.994;4.448;2022-11-15T01:08:16;9.18;88.22
71291;DHT22;59073;51.994;4.448;2022-11-15T01:10:42;9.26;88.36
71291;DHT22;59073;51.994;4.448;2022-11-15T01:13:07;9.29;88.13
71291;DHT22;59073;51.994;4.448;2022-11-15T01:15:33;9.28;88.18
71291;DHT22;59073;51.994;4.448;2022-11-15T01:17:58;9.43;88.23
71291;DHT22;59073;51.994;4.448;2022-11-15T01:20:24;9.47;87.59
71291;DHT22;59073;51.994;4.448;2022-11-15T01:22:49;9.49;87.77
71291;DHT22;59073;51.994;4.448;2022-11-15T01:25:15;9.51;87.81
71291;DHT22;59073;51.994;4.448;2022-11-15T01:27:40;9.50;87.63
71291;DHT22;59073;51.994;4.448;2022-11-15T01:30:06;9.54;87.68
71291;DHT22;59073;51.994;4.448;2022-11-15T01:32:32;9.49;87.72
71291;DHT22;59073;51.994;4.448;2022-11-15T01:34:57;9.53;87.73
71291;DHT22;59073;51.994;4.448;2022-11-15T01:37:22;9.57;88.00
71291;DHT22;59073;51.994;4.448;2022-11-15T01:39:48;9.60;87.85
71291;DHT22;59073;51.994;4.448;2022-11-15T01:42:14;9.69;87.87
71291;DHT22;59073;51.994;4.448;2022-11-15T01:44:42;9.70;88.03
71291;DHT22;59073;51.994;4.448;2022-11-15T01:47:16;9.70;88.47
71291;DHT22;59073;51.994;4.448;2022-11-15T01:52:18;9.74;88.61
71291;DHT22;59073;51.994;4.448;2022-11-15T01:54:48;9.88;88.61
71291;DHT22;59073;51.994;4.448;2022-11-15T01:57:15;9.94;88.41
71291;DHT22;59073;51.994;4.448;2022-11-15T01:59:43;10.00;88.51
71291;DHT22;59073;51.994;4.448;2022-11-15T02:02:10;10.05;88.49
71291;DHT22;59073;51.994;4.448;2022-11-15T02:04:43;10.01;88.42
71291;DHT22;59073;51.994;4.448;2022-11-15T02:07:13;10.04;88.90
71291;DHT22;59073;51.994;4.448;2022-11-15T02:09:40;10.12;88.66
71291;DHT22;59073;51.994;4.448;2022-11-15T02:12:08;10.25;88.42
71291;DHT22;59073;51.994;4.448;2022-11-15T02:14:38;10.32;88.31
71291;DHT22;59073;51.994;4.448;2022-11-15T02:17:31;10.37;88.30
71291;DHT22;59073;51.994;4.448;2022-11-15T02:20:23;10.32;88.30
71291;DHT22;59073;51.994;4.448;2022-11-15T02:34:09;10.60;87.71
71291;DHT22;59073;51.994;4.448;2022-11-15T02:42:25;10.77;87.40
71291;DHT22;59073;51.994;4.448;2022-11-15T02:45:19;10.73;87.76
71291;DHT22;59073;51.994;4.448;2022-11-15T02:47:51;10.80;87.64
71291;DHT22;59073;51.994;4.448;2022-11-15T02:50:24;10.82;87.75
71291;DHT22;59073;51.994;4.448;2022-11-15T02:52:51;10.89;87.63
71291;DHT22;59073;51.994;4.448;2022-11-15T02:55:34;10.92;87.80
71291;DHT22;59073;51.994;4.448;2022-11-15T03:00:52;11.03;87.80
71291;DHT22;59073;51.994;4.448;2022-11-15T03:11:19;11.26;87.77
71291;DHT22;59073;51.994;4.448;2022-11-15T03:14:08;11.32;87.62
71291;DHT22;59073;51.994;4.448;2022-11-15T03:22:12;11.51;87.78
71291;DHT22;59073;51.994;4.448;2022-11-15T03:24:43;11.57;87.47
71291;DHT22;59073;51.994;4.448;2022-11-15T03:27:13;11.61;87.59
71291;DHT22;59073;51.994;4.448;2022-11-15T03:29:46;11.58;87.68
71291;DHT22;59073;51.994;4.448;2022-11-15T03:32:19;11.58;87.77
71291;DHT22;59073;51.994;4.448;2022-11-15T03:34:58;11.71;87.61
71291;DHT22;59073;51.994;4.448;2022-11-15T03:37:48;11.78;87.07
71291;DHT22;59073;51.994;4.448;2022-11-15T03:40:17;11.81;87.05
71291;DHT22;59073;51.994;4.448;2022-11-15T03:42:56;11.83;86.92
71291;DHT22;59073;51.994;4.448;2022-11-15T03:45:39;11.89;86.87
71291;DHT22;59073;51.994;4.448;2022-11-15T03:48:14;11.88;87.01
71291;DHT22;59073;51.994;4.448;2022-11-15T03:50:43;11.93;87.22
71291;DHT22;59073;51.994;4.448;2022-11-15T03:53:09;11.98;86.97
71291;DHT22;59073;51.994;4.448;2022-11-15T03:55:35;11.99;86.96
71291;DHT22;59073;51.994;4.448;2022-11-15T03:58:01;11.96;86.97
71291;DHT22;59073;51.994;4.448;2022-11-15T04:00:28;12.05;86.97
71291;DHT22;59073;51.994;4.448;2022-11-15T04:02:53;12.10;86.73
71291;DHT22;59073;51.994;4.448;2022-11-15T04:05:19;12.16;86.64
71291;DHT22;59073;51.994;4.448;2022-11-15T04:07:44;12.13;86.48
71291;DHT22;59073;51.994;4.448;2022-11-15T04:10:11;12.09;86.68
71291;DHT22;59073;51.994;4.448;2022-11-15T04:12:39;12.08;86.80
71291;DHT22;59073;51.994;4.448;2022-11-15T04:15:18;12.05;87.04
71291;DHT22;59073;51.994;4.448;2022-11-15T04:17:51;12.06;86.87
71291;DHT22;59073;51.994;4.448;2022-11-15T04:20:25;12.12;86.79
71291;DHT22;59073;51.994;4.448;2022-11-15T04:23:16;12.13;86.64
71291;DHT22;59073;51.994;4.448;2022-11-15T04:26:03;12.16;86.68
71291;DHT22;59073;51.994;4.448;2022-11-15T04:28:30;12.20;86.60
71291;DHT22;59073;51.994;4.448;2022-11-15T04:30:55;12.32;86.16
71291;DHT22;59073;51.994;4.448;2022-11-15T04:33:21;12.34;85.68
71291;DHT22;59073;51.994;4.448;2022-11-15T04:35:47;12.36;85.88
71291;DHT22;59073;51.994;4.448;2022-11-15T04:38:32;12.40;85.52
71291;DHT22;59073;51.994;4.448;2022-11-15T04:40:58;12.33;85.45
71291;DHT22;59073;51.994;4.448;2022-11-15T04:43:23;12.36;85.61
71291;DHT22;59073;51.994;4.448;2022-11-15T04:45:49;12.36;85.48
71291;DHT22;59073;51.994;4.448;2022-11-15T04:48:14;12.32;85.59
71291;DHT22;59073;51.994;4.448;2022-11-15T04:50:39;12.33;85.49
71291;DHT22;59073;51.994;4.448;2022-11-15T04:53:05;12.37;85.12
71291;DHT22;59073;51.994;4.448;2022-11-15T04:55:31;12.39;85.14
71291;DHT22;59073;51.994;4.448;2022-11-15T04:58:01;12.28;85.33
71291;DHT22;59073;51.994;4.448;2022-11-15T05:00:28;12.23;85.78
71291;DHT22;59073;51.994;4.448;2022-11-15T05:02:55;12.23;85.73
71291;DHT22;59073;51.994;4.448;2022-11-15T05:05:39;12.22;85.69
71291;DHT22;59073;51.994;4.448;2022-11-15T05:08:04;12.20;85.83
71291;DHT22;59073;51.994;4.448;2022-11-15T05:10:30;12.16;86.00
71291;DHT22;59073;51.994;4.448;2022-11-15T05:12:55;12.22;85.85
71291;DHT22;59073;51.994;4.448;2022-11-15T05:15:21;12.20;85.75
71291;DHT22;59073;51.994;4.448;2022-11-15T05:17:46;12.09;85.93
71291;DHT22;59073;51.994;4.448;2022-11-15T05:20:12;12.12;85.85
71291;DHT22;59073;51.994;4.448;2022-11-15T05:22:38;12.08;86.18
71291;DHT22;59073;51.994;4.448;2022-11-15T05:25:05;12.03;86.42
71291;DHT22;59073;51.994;4.448;2022-11-15T05:27:31;12.03;86.35
71291;DHT22;59073;51.994;4.448;2022-11-15T05:29:56;11.99;86.05
71291;DHT22;59073;51.994;4.448;2022-11-15T05:32:21;12.03;85.88
71291;DHT22;59073;51.994;4.448;2022-11-15T05:34:47;11.99;85.89
71291;DHT22;59073;51.994;4.448;2022-11-15T05:37:13;12.03;85.85
71291;DHT22;59073;51.994;4.448;2022-11-15T05:39:39;12.05;85.54
71291;DHT22;59073;51.994;4.448;2022-11-15T05:42:13;12.08;85.44
71291;DHT22;59073;51.994;4.448;2022-11-15T05:44:43;12.00;85.60
71291;DHT22;59073;51.994;4.448;2022-11-15T05:47:13;11.92;85.47
71291;DHT22;59073;51.994;4.448;2022-11-15T05:49:43;11.91;85.53
71291;DHT22;59073;51.994;4.448;2022-11-15T05:52:13;11.95;85.54
71291;DHT22;59073;51.994;4.448;2022-11-15T05:54:40;11.98;85.25
71291;DHT22;59073;51.994;4.448;2022-11-15T05:57:06;11.95;85.17
71291;DHT22;59073;51.994;4.448;2022-11-15T05:59:33;11.99;84.92
71291;DHT22;59073;51.994;4.448;2022-11-15T06:01:59;11.92;84.80
71291;DHT22;59073;51.994;4.448;2022-11-15T06:04:25;11.81;84.78
71291;DHT22;59073;51.994;4.448;2022-11-15T06:06:50;11.74;84.99
71291;DHT22;59073;51.994;4.448;2022-11-15T06:09:16;11.74;84.74
71291;DHT22;59073;51.994;4.448;2022-11-15T06:11:41;11.75;84.36
71291;DHT22;59073;51.994;4.448;2022-11-15T06:14:06;11.71;84.32
71291;DHT22;59073;51.994;4.448;2022-11-15T06:16:32;11.64;84.30
71291;DHT22;59073;51.994;4.448;2022-11-15T06:18:57;11.62;84.06
71291;DHT22;59073;51.994;4.448;2022-11-15T06:21:23;11.57;83.97
71291;DHT22;59073;51.994;4.448;2022-11-15T06:23:48;11.45;83.91
71291;DHT22;59073;51.994;4.448;2022-11-15T06:26:14;11.42;84.15
71291;DHT22;59073;51.994;4.448;2022-11-15T06:28:39;11.40;84.08
71291;DHT22;59073;51.994;4.448;2022-11-15T06:31:06;11.38;83.89
71291;DHT22;59073;51.994;4.448;2022-11-15T06:33:32;11.32;84.15
71291;DHT22;59073;51.994;4.448;2022-11-15T06:36:09;11.31;84.15
71291;DHT22;59073;51.994;4.448;2022-11-15T06:38:36;11.27;84.43
71291;DHT22;59073;51.994;4.448;2022-11-15T06:41:10;11.19;85.24
71291;DHT22;59073;51.994;4.448;2022-11-15T06:43:36;11.24;85.19
71291;DHT22;59073;51.994;4.448;2022-11-15T06:46:04;11.17;85.00
71291;DHT22;59073;51.994;4.448;2022-11-15T06:48:31;11.17;85.38
71291;DHT22;59073;51.994;4.448;2022-11-15T06:50:59;11.14;85.01
71291;DHT22;59073;51.994;4.448;2022-11-15T06:53:26;11.11;85.43
71291;DHT22;59073;51.994;4.448;2022-11-15T06:55:52;11.10;85.62
71291;DHT22;59073;51.994;4.448;2022-11-15T06:58:18;11.16;85.27
71291;DHT22;59073;51.994;4.448;2022-11-15T07:00:45;11.16;85.39
71291;DHT22;59073;51.994;4.448;2022-11-15T07:03:11;11.23;85.26
71291;DHT22;59073;51.994;4.448;2022-11-15T07:05:36;11.21;85.07
71291;DHT22;59073;51.994;4.448;2022-11-15T07:08:02;11.21;85.12
71291;DHT22;59073;51.994;4.448;2022-11-15T07:10:28;11.21;84.94
71291;DHT22;59073;51.994;4.448;2022-11-15T07:12:55;11.17;85.28
71291;DHT22;59073;51.994;4.448;2022-11-15T07:15:23;11.17;85.34
71291;DHT22;59073;51.994;4.448;2022-11-15T07:17:49;11.20;85.54
71291;DHT22;59073;51.994;4.448;2022-11-15T07:20:15;11.27;84.84
71291;DHT22;59073;51.994;4.448;2022-11-15T07:22:41;11.24;85.02
71291;DHT22;59073;51.994;4.448;2022-11-15T07:25:08;11.32;85.11
71291;DHT22;59073;51.994;4.448;2022-11-15T07:27:34;11.37;84.93
71291;DHT22;59073;51.994;4.448;2022-11-15T07:30:00;11.34;84.73
71291;DHT22;59073;51.994;4.448;2022-11-15T07:32:26;11.40;84.38
71291;DHT22;59073;51.994;4.448;2022-11-15T07:34:52;11.42;84.04
71291;DHT22;59073;51.994;4.448;2022-11-15T07:37:18;11.41;84.13
71291;DHT22;59073;51.994;4.448;2022-11-15T07:39:43;11.42;83.66
71291;DHT22;59073;51.994;4.448;2022-11-15T07:42:09;11.37;83.63
71291;DHT22;59073;51.994;4.448;2022-11-15T07:44:53;11.38;83.50
71291;DHT22;59073;51.994;4.448;2022-11-15T07:47:19;11.37;83.26
71291;DHT22;59073;51.994;4.448;2022-11-15T07:49:44;11.28;83.40
71291;DHT22;59073;51.994;4.448;2022-11-15T07:52:11;11.26;83.63
71291;DHT22;59073;51.994;4.448;2022-11-15T07:54:37;11.34;83.27
71291;DHT22;59073;51.994;4.448;2022-11-15T07:57:03;11.21;84.00
71291;DHT22;59073;51.994;4.448;2022-11-15T07:59:28;11.17;84.26
71291;DHT22;59073;51.994;4.448;2022-11-15T08:01:57;11.14;84.34
71291;DHT22;59073;51.994;4.448;2022-11-15T08:04:22;11.14;84.52
71291;DHT22;59073;51.994;4.448;2022-11-15T08:06:47;11.32;83.97
71291;DHT22;59073;51.994;4.448;2022-11-15T08:09:13;11.41;83.60
71291;DHT22;59073;51.994;4.448;2022-11-15T08:11:38;11.62;82.86
71291;DHT22;59073;51.994;4.448;2022-11-15T08:14:04;11.79;82.68
71291;DHT22;59073;51.994;4.448;2022-11-15T08:16:29;11.79;81.96
71291;DHT22;59073;51.994;4.448;2022-11-15T08:18:55;11.77;82.28
71291;DHT22;59073;51.994;4.448;2022-11-15T08:21:21;11.81;82.11
71291;DHT22;59073;51.994;4.448;2022-11-15T08:23:46;11.93;81.78
71291;DHT22;59073;51.994;4.448;2022-11-15T08:26:12;11.86;81.97
71291;DHT22;59073;51.994;4.448;2022-11-15T08:28:38;11.82;82.07
71291;DHT22;59073;51.994;4.448;2022-11-15T08:31:04;11.68;82.51
71291;DHT22;59073;51.994;4.448;2022-11-15T08:33:35;11.58;82.63
71291;DHT22;59073;51.994;4.448;2022-11-15T08:36:00;11.62;82.47
71291;DHT22;59073;51.994;4.448;2022-11-15T08:38:29;11.69;82.46
71291;DHT22;59073;51.994;4.448;2022-11-15T08:41:04;11.89;81.76
71291;DHT22;59073;51.994;4.448;2022-11-15T08:43:30;11.98;81.60
71291;DHT22;59073;51.994;4.448;2022-11-15T08:45:58;11.99;81.30
71291;DHT22;59073;51.994;4.448;2022-11-15T08:48:24;12.08;81.10
71291;DHT22;59073;51.994;4.448;2022-11-15T08:50:54;11.86;81.27
71291;DHT22;59073;51.994;4.448;2022-11-15T08:53:20;11.92;81.38
71291;DHT22;59073;51.994;4.448;2022-11-15T08:55:46;12.18;80.74
71291;DHT22;59073;51.994;4.448;2022-11-15T08:58:11;12.22;80.67
71291;DHT22;59073;51.994;4.448;2022-11-15T09:00:37;12.41;79.94
71291;DHT22;59073;51.994;4.448;2022-11-15T09:03:06;12.59;79.27
71291;DHT22;59073;51.994;4.448;2022-11-15T09:05:32;12.76;78.99
71291;DHT22;59073;51.994;4.448;2022-11-15T09:07:57;12.83;78.47
71291;DHT22;59073;51.994;4.448;2022-11-15T09:10:23;12.92;78.26
71291;DHT22;59073;51.994;4.448;2022-11-15T09:12:49;12.90;77.97
71291;DHT22;59073;51.994;4.448;2022-11-15T09:15:15;12.56;78.49
71291;DHT22;59073;51.994;4.448;2022-11-15T09:17:41;12.47;78.94
71291;DHT22;59073;51.994;4.448;2022-11-15T09:20:07;12.60;78.85
71291;DHT22;59073;51.994;4.448;2022-11-15T09:22:33;12.80;78.39
71291;DHT22;59073;51.994;4.448;2022-11-15T09:24:58;13.05;77.78
71291;DHT22;59073;51.994;4.448;2022-11-15T09:27:28;13.16;76.67
71291;DHT22;59073;51.994;4.448;2022-11-15T09:29:54;13.14;76.85
71291;DHT22;59073;51.994;4.448;2022-11-15T09:32:19;13.32;77.24
71291;DHT22;59073;51.994;4.448;2022-11-15T09:35:02;13.29;76.68
71291;DHT22;59073;51.994;4.448;2022-11-15T09:37:37;13.08;76.80
71291;DHT22;59073;51.994;4.448;2022-11-15T09:40:05;13.01;77.09
71291;DHT22;59073;51.994;4.448;2022-11-15T09:49:04;13.02;77.62
71291;DHT22;59073;51.994;4.448;2022-11-15T09:51:47;13.15;77.24
71291;DHT22;59073;51.994;4.448;2022-11-15T09:57:49;13.31;76.51
71291;DHT22;59073;51.994;4.448;2022-11-15T10:00:47;13.36;76.02
71291;DHT22;59073;51.994;4.448;2022-11-15T10:23:41;13.42;74.93
71291;DHT22;59073;51.994;4.448;2022-11-15T10:26:12;13.49;73.95
71291;DHT22;59073;51.994;4.448;2022-11-15T10:29:10;13.60;74.33
71291;DHT22;59073;51.994;4.448;2022-11-15T10:31:41;13.56;73.87
71291;DHT22;59073;51.994;4.448;2022-11-15T10:34:11;13.63;74.49
71291;DHT22;59073;51.994;4.448;2022-11-15T10:36:45;13.56;74.03
71291;DHT22;59073;51.994;4.448;2022-11-15T10:39:14;13.43;74.05
71291;DHT22;59073;51.994;4.448;2022-11-15T10:41:42;13.32;74.15
71291;DHT22;59073;51.994;4.448;2022-11-15T10:46:44;13.22;74.41
71291;DHT22;59073;51.994;4.448;2022-11-15T10:49:29;13.29;74.31
71291;DHT22;59073;51.994;4.448;2022-11-15T10:52:16;13.10;74.29
71291;DHT22;59073;51.994;4.448;2022-11-15T10:54:46;13.07;74.53
71291;DHT22;59073;51.994;4.448;2022-11-15T10:57:24;13.02;74.52
71291;DHT22;59073;51.994;4.448;2022-11-15T10:59:54;12.84;75.32
71291;DHT22;59073;51.994;4.448;2022-11-15T11:02:34;12.65;75.12
71291;DHT22;59073;51.994;4.448;2022-11-15T11:05:02;12.81;75.47
71291;DHT22;59073;51.994;4.448;2022-11-15T11:07:33;12.84;74.82
71291;DHT22;59073;51.994;4.448;2022-11-15T11:10:20;12.98;75.51
71291;DHT22;59073;51.994;4.448;2022-11-15T11:12:48;13.15;74.39
71291;DHT22;59073;51.994;4.448;2022-11-15T11:15:15;13.22;73.56
71291;DHT22;59073;51.994;4.448;2022-11-15T11:18:12;13.15;73.93
71291;DHT22;59073;51.994;4.448;2022-11-15T11:20:54;13.05;73.98
71291;DHT22;59073;51.994;4.448;2022-11-15T11:26:20;13.10;73.48
71291;DHT22;59073;51.994;4.448;2022-11-15T11:29:20;13.11;73.24
71291;DHT22;59073;51.994;4.448;2022-11-15T11:31:57;13.41;72.63
71291;DHT22;59073;51.994;4.448;2022-11-15T11:37:09;13.38;71.99
71291;DHT22;59073;51.994;4.448;2022-11-15T11:40:10;13.34;72.00
71291;DHT22;59073;51.994;4.448;2022-11-15T11:42:45;13.25;71.87
71291;DHT22;59073;51.994;4.448;2022-11-15T11:48:05;13.36;72.26
71291;DHT22;59073;51.994;4.448;2022-11-15T11:50:37;13.19;72.45
71291;DHT22;59073;51.994;4.448;2022-11-15T11:53:15;13.12;72.65
71291;DHT22;59073;51.994;4.448;2022-11-15T11:55:51;13.19;72.97
71291;DHT22;59073;51.994;4.448;2022-11-15T11:58:33;13.23;72.67
71291;DHT22;59073;51.994;4.448;2022-11-15T12:01:26;13.39;72.61
71291;DHT22;59073;51.994;4.448;2022-11-15T12:07:04;13.32;72.55
71291;DHT22;59073;51.994;4.448;2022-11-15T12:12:01;13.35;72.48
71291;DHT22;59073;51.994;4.448;2022-11-15T12:14:53;13.56;72.31
71291;DHT22;59073;51.994;4.448;2022-11-15T12:17:24;13.42;72.30
71291;DHT22;59073;51.994;4.448;2022-11-15T12:19:55;13.49;72.28
71291;DHT22;59073;51.994;4.448;2022-11-15T12:25:20;13.43;72.01
71291;DHT22;59073;51.994;4.448;2022-11-15T12:27:59;13.56;71.45
71291;DHT22;59073;51.994;4.448;2022-11-15T12:30:41;13.69;72.27
71291;DHT22;59073;51.994;4.448;2022-11-15T12:33:30;13.66;71.37
71291;DHT22;59073;51.994;4.448;2022-11-15T12:36:02;13.63;70.99
71291;DHT22;59073;51.994;4.448;2022-11-15T12:41:16;13.49;71.38
71291;DHT22;59073;51.994;4.448;2022-11-15T12:43:44;13.49;71.86
71291;DHT22;59073;51.994;4.448;2022-11-15T12:46:22;13.39;71.31
71291;DHT22;59073;51.994;4.448;2022-11-15T12:48:52;13.34;71.86
71291;DHT22;59073;51.994;4.448;2022-11-15T12:59:54;13.16;71.68
71291;DHT22;59073;51.994;4.448;2022-11-15T13:02:41;13.15;72.09
71291;DHT22;59073;51.994;4.448;2022-11-15T13:17:55;13.07;70.84
71291;DHT22;59073;51.994;4.448;2022-11-15T13:20:31;13.07;70.77
71291;DHT22;59073;51.994;4.448;2022-11-15T13:28:00;12.98;70.77
71291;DHT22;59073;51.994;4.448;2022-11-15T13:30:29;12.95;70.07
71291;DHT22;59073;51.994;4.448;2022-11-15T13:33:05;12.97;70.51
71291;DHT22;59073;51.994;4.448;2022-11-15T13:35:38;12.80;70.58
71291;DHT22;59073;51.994;4.448;2022-11-15T13:38:05;12.94;70.60
71291;DHT22;59073;51.994;4.448;2022-11-15T13:40:37;13.04;70.50
71291;DHT22;59073;51.994;4.448;2022-11-15T13:46:06;12.94;69.80
71291;DHT22;59073;51.994;4.448;2022-11-15T13:48:32;12.90;69.83
71291;DHT22;59073;51.994;4.448;2022-11-15T13:51:01;12.84;69.93
71291;DHT22;59073;51.994;4.448;2022-11-15T13:53:31;12.85;70.56
71291;DHT22;59073;51.994;4.448;2022-11-15T13:55:58;12.74;69.89
71291;DHT22;59073;51.994;4.448;2022-11-15T13:58:24;12.77;70.56
71291;DHT22;59073;51.994;4.448;2022-11-15T14:01:00;12.87;70.13
71291;DHT22;59073;51.994;4.448;2022-11-15T14:03:32;12.77;69.76
71291;DHT22;59073;51.994;4.448;2022-11-15T14:06:05;12.88;70.23
71291;DHT22;59073;51.994;4.448;2022-11-15T14:08:33;12.77;70.22
71291;DHT22;59073;51.994;4.448;2022-11-15T14:11:13;12.84;70.69
71291;DHT22;59073;51.994;4.448;2022-11-15T14:13:40;12.76;70.19
71291;DHT22;59073;51.994;4.448;2022-11-15T14:16:18;12.80;70.61
71291;DHT22;59073;51.994;4.448;2022-11-15T14:18:52;12.90;70.34
71291;DHT22;59073;51.994;4.448;2022-11-15T14:21:19;12.78;70.84
71291;DHT22;59073;51.994;4.448;2022-11-15T14:23:45;12.81;70.87
71291;DHT22;59073;51.994;4.448;2022-11-15T14:26:32;12.70;70.71
71291;DHT22;59073;51.994;4.448;2022-11-15T14:31:48;12.80;70.44
71291;DHT22;59073;51.994;4.448;2022-11-15T14:34:14;12.77;70.95
71291;DHT22;59073;51.994;4.448;2022-11-15T14:36:39;12.85;71.34
71291;DHT22;59073;51.994;4.448;2022-11-15T14:39:05;12.78;71.02
71291;DHT22;59073;51.994;4.448;2022-11-15T14:41:35;12.80;70.80
71291;DHT22;59073;51.994;4.448;2022-11-15T14:44:04;12.87;70.82
71291;DHT22;59073;51.994;4.448;2022-11-15T14:46:30;12.78;71.13
71291;DHT22;59073;51.994;4.448;2022-11-15T14:48:55;12.90;70.97
71291;DHT22;59073;51.994;4.448;2022-11-15T14:51:21;12.92;70.79
71291;DHT22;59073;51.994;4.448;2022-11-15T14:53:47;12.91;70.80
71291;DHT22;59073;51.994;4.448;2022-11-15T14:56:14;12.94;70.86
71291;DHT22;59073;51.994;4.448;2022-11-15T14:58:40;13.00;70.97
71291;DHT22;59073;51.994;4.448;2022-11-15T15:01:24;12.90;70.91
71291;DHT22;59073;51.994;4.448;2022-11-15T15:03:50;12.81;71.37
71291;DHT22;59073;51.994;4.448;2022-11-15T15:06:22;12.85;71.63
71291;DHT22;59073;51.994;4.448;2022-11-15T15:08:48;12.94;71.31
71291;DHT22;59073;51.994;4.448;2022-11-15T15:11:35;12.90;71.29
71291;DHT22;59073;51.994;4.448;2022-11-15T15:14:01;12.94;71.57
71291;DHT22;59073;51.994;4.448;2022-11-15T15:16:26;12.92;71.45
71291;DHT22;59073;51.994;4.448;2022-11-15T15:18:52;12.91;71.38
71291;DHT22;59073;51.994;4.448;2022-11-15T15:21:28;12.94;71.48
71291;DHT22;59073;51.994;4.448;2022-11-15T15:23:56;13.05;71.26
71291;DHT22;59073;51.994;4.448;2022-11-15T15:26:23;12.98;71.43
71291;DHT22;59073;51.994;4.448;2022-11-15T15:28:48;13.00;71.98
71291;DHT22;59073;51.994;4.448;2022-11-15T15:31:14;12.94;72.50
71291;DHT22;59073;51.994;4.448;2022-11-15T15:33:40;12.91;73.97
71291;DHT22;59073;51.994;4.448;2022-11-15T15:36:11;12.90;75.06
71291;DHT22;59073;51.994;4.448;2022-11-15T15:38:37;12.64;75.35
71291;DHT22;59073;51.994;4.448;2022-11-15T15:41:02;12.59;76.39
71291;DHT22;59073;51.994;4.448;2022-11-15T15:43:28;12.53;77.17
71291;DHT22;59073;51.994;4.448;2022-11-15T15:45:54;12.53;77.64
71291;DHT22;59073;51.994;4.448;2022-11-15T15:48:19;12.43;77.91
71291;DHT22;59073;51.994;4.448;2022-11-15T15:50:45;12.37;78.52
71291;DHT22;59073;51.994;4.448;2022-11-15T15:53:11;12.46;79.29
71291;DHT22;59073;51.994;4.448;2022-11-15T15:55:38;12.29;79.33
71291;DHT22;59073;51.994;4.448;2022-11-15T15:58:04;12.23;80.23
71291;DHT22;59073;51.994;4.448;2022-11-15T16:00:30;12.20;80.28
71291;DHT22;59073;51.994;4.448;2022-11-15T16:02:58;12.26;80.27
71291;DHT22;59073;51.994;4.448;2022-11-15T16:05:24;12.26;80.63
71291;DHT22;59073;51.994;4.448;2022-11-15T16:07:50;12.23;80.83
71291;DHT22;59073;51.994;4.448;2022-11-15T16:10:20;12.13;81.14
71291;DHT22;59073;51.994;4.448;2022-11-15T16:12:47;12.10;82.03
71291;DHT22;59073;51.994;4.448;2022-11-15T16:15:12;11.95;82.64
71291;DHT22;59073;51.994;4.448;2022-11-15T16:17:42;11.92;83.06
71291;DHT22;59073;51.994;4.448;2022-11-15T16:20:29;11.88;83.53
71291;DHT22;59073;51.994;4.448;2022-11-15T16:22:55;11.96;83.62
71291;DHT22;59073;51.994;4.448;2022-11-15T16:25:21;11.81;84.35
71291;DHT22;59073;51.994;4.448;2022-11-15T16:27:46;11.81;85.12
71291;DHT22;59073;51.994;4.448;2022-11-15T16:30:18;11.71;85.31
71291;DHT22;59073;51.994;4.448;2022-11-15T16:32:43;11.72;85.20
71291;DHT22;59073;51.994;4.448;2022-11-15T16:35:13;11.69;85.35
71291;DHT22;59073;51.994;4.448;2022-11-15T16:37:40;11.74;85.75
71291;DHT22;59073;51.994;4.448;2022-11-15T16:40:27;11.65;85.95
71291;DHT22;59073;51.994;4.448;2022-11-15T16:42:53;11.67;86.25
71291;DHT22;59073;51.994;4.448;2022-11-15T16:45:20;11.62;86.31
71291;DHT22;59073;51.994;4.448;2022-11-15T16:47:46;11.64;86.56
71291;DHT22;59073;51.994;4.448;2022-11-15T16:50:24;11.60;87.02
71291;DHT22;59073;51.994;4.448;2022-11-15T16:52:52;11.61;87.01
71291;DHT22;59073;51.994;4.448;2022-11-15T16:55:19;11.61;87.13
71291;DHT22;59073;51.994;4.448;2022-11-15T16:57:45;11.54;87.56
71291;DHT22;59073;51.994;4.448;2022-11-15T17:00:14;11.60;87.65
71291;DHT22;59073;51.994;4.448;2022-11-15T17:02:42;11.58;87.80
71291;DHT22;59073;51.994;4.448;2022-11-15T17:05:08;11.58;87.71
71291;DHT22;59073;51.994;4.448;2022-11-15T17:07:34;11.51;88.19
71291;DHT22;59073;51.994;4.448;2022-11-15T17:09:59;11.60;88.04
71291;DHT22;59073;51.994;4.448;2022-11-15T17:12:25;11.55;88.16
71291;DHT22;59073;51.994;4.448;2022-11-15T17:14:50;11.55;88.31
71291;DHT22;59073;51.994;4.448;2022-11-15T17:17:15;11.57;88.39
71291;DHT22;59073;51.994;4.448;2022-11-15T17:19:41;11.58;88.65
71291;DHT22;59073;51.994;4.448;2022-11-15T17:22:06;11.57;88.56
71291;DHT22;59073;51.994;4.448;2022-11-15T17:24:32;11.57;88.73
71291;DHT22;59073;51.994;4.448;2022-11-15T17:26:57;11.64;88.54
71291;DHT22;59073;51.994;4.448;2022-11-15T17:29:23;11.68;88.61
71291;DHT22;59073;51.994;4.448;2022-11-15T17:31:48;11.60;88.90
71291;DHT22;59073;51.994;4.448;2022-11-15T17:34:13;11.58;89.07
71291;DHT22;59073;51.994;4.448;2022-11-15T17:36:39;11.64;88.99
71291;DHT22;59073;51.994;4.448;2022-11-15T17:39:04;11.58;89.22
71291;DHT22;59073;51.994;4.448;2022-11-15T17:41:30;11.64;89.16
71291;DHT22;59073;51.994;4.448;2022-11-15T17:43:57;11.57;89.55
71291;DHT22;59073;51.994;4.448;2022-11-15T17:46:24;11.64;89.38